Time;durP1;ratioP1;P1;durP2;ratioP2;P2;SDS_P1;SDS_P2;PMS_P1;PMS_P2;Temp;Humidity;BMP_temperature;BMP_pressure;BME280_temperature;BME280_humidity;BME280_pressure;Samples;Min_cycle;Max_cycle;Signal;HPM_P1;HPM_P2
2022/10/29 00:01:33;;;;;;;29.85;13.93;;;;;;;14.12;94.82;102083.81;5063255;28;20328;-66
2022/10/29 00:03:58;;;;;;;27.67;14.38;;;;;;;14.12;94.75;102081.19;5063430;28;20041;-66
2022/10/29 00:06:23;;;;;;;32.25;15.00;;;;;;;14.11;94.73;102079.41;5078920;28;20145;-66
2022/10/29 00:08:49;;;;;;;27.45;14.23;;;;;;;14.08;94.98;102073.25;5063490;28;20028;-66
2022/10/29 00:11:20;;;;;;;26.10;14.23;;;;;;;14.09;94.95;102074.13;5063543;28;20035;-66
2022/10/29 00:13:47;;;;;;;29.95;14.52;;;;;;;14.05;94.61;102067.91;5063360;28;20402;-66
2022/10/29 00:16:18;;;;;;;28.23;14.05;;;;;;;14.03;93.82;102064.38;5063130;28;20268;-66
2022/10/29 00:18:44;;;;;;;30.67;14.27;;;;;;;13.97;93.45;102060.66;5063284;28;20174;-66
2022/10/29 00:21:13;;;;;;;31.85;14.60;;;;;;;13.93;93.61;102064.03;5063081;28;20023;-66
2022/10/29 00:23:39;;;;;;;35.47;16.35;;;;;;;13.91;96.05;102061.38;5063278;28;20037;-66
2022/10/29 00:26:05;;;;;;;29.33;15.55;;;;;;;13.83;96.15;102073.34;5063145;28;20108;-66
2022/10/29 00:28:31;;;;;;;30.25;15.05;;;;;;;13.70;96.17;102078.22;5063048;28;20021;-66
2022/10/29 00:31:01;;;;;;;35.85;16.50;;;;;;;13.62;97.75;102074.47;5062927;28;20106;-66
2022/10/29 00:33:26;;;;;;;37.65;16.52;;;;;;;13.65;97.61;102071.94;5061578;28;20170;-66
2022/10/29 00:36:00;;;;;;;29.60;14.63;;;;;;;13.64;96.71;102079.75;5062941;28;20025;-66
2022/10/29 00:38:26;;;;;;;29.60;15.77;;;;;;;13.67;96.33;102077.22;5062869;28;20017;-74
2022/10/29 00:40:53;;;;;;;33.53;15.50;;;;;;;13.71;96.34;102082.59;5062979;28;20021;-74
2022/10/29 00:43:20;;;;;;;33.38;14.68;;;;;;;13.73;96.12;102078.31;5078309;28;20017;-75
2022/10/29 00:45:56;;;;;;;33.28;15.07;;;;;;;13.77;96.33;102083.66;5062831;28;20164;-74
2022/10/29 00:48:25;;;;;;;31.45;15.48;;;;;;;13.77;96.35;102078.41;5062071;28;20032;-75
2022/10/29 00:50:52;;;;;;;27.80;14.75;;;;;;;13.76;95.63;102087.09;5062704;28;20045;-75
2022/10/29 00:53:23;;;;;;;29.27;15.82;;;;;;;13.71;96.37;102080.00;5062748;28;20208;-75
2022/10/29 00:55:48;;;;;;;29.75;15.52;;;;;;;13.73;96.51;102090.53;5062724;28;20020;-75
2022/10/29 00:58:14;;;;;;;32.80;16.48;;;;;;;13.77;96.57;102083.66;5062533;28;20053;-74
2022/10/29 01:00:39;;;;;;;32.33;15.13;;;;;;;13.79;96.16;102089.81;5062631;28;20021;-75
2022/10/29 01:03:05;;;;;;;31.42;14.80;;;;;;;13.77;95.72;102089.78;5062547;28;20029;-75
2022/10/29 01:05:33;;;;;;;31.50;13.70;;;;;;;13.77;95.86;102078.41;5077996;28;20324;-75
2022/10/29 01:08:00;;;;;;;29.48;14.85;;;;;;;13.74;96.04;102082.72;5062671;28;20037;-76
2022/10/29 01:10:53;;;;;;;28.60;14.73;;;;;;;13.76;96.24;102071.38;5062351;28;20031;-75
2022/10/29 01:13:45;;;;;;;26.98;14.18;;;;;;;13.75;96.12;102073.13;5062341;28;20044;-75
2022/10/29 01:16:22;;;;;;;31.88;14.70;;;;;;;13.75;96.11;102067.88;5062353;28;20025;-75
2022/10/29 01:19:10;;;;;;;30.73;14.52;;;;;;;13.75;95.61;102060.03;5062465;28;20296;-75
2022/10/29 01:21:44;;;;;;;35.08;16.25;;;;;;;13.76;95.28;102055.66;5062267;28;20214;-75
2022/10/29 01:24:45;;;;;;;33.58;16.77;;;;;;;13.72;95.45;102049.47;5062541;28;20032;-75
2022/10/29 01:27:31;;;;;;;31.85;15.63;;;;;;;13.69;95.40;102055.50;5041481;28;20041;-75
2022/10/29 01:30:14;;;;;;;35.85;16.90;;;;;;;13.66;95.24;102065.88;5062470;28;20048;-75
2022/10/29 01:33:00;;;;;;;33.35;17.00;;;;;;;13.63;95.61;102062.25;5062223;28;20124;-75
2022/10/29 01:35:53;;;;;;;36.97;18.02;;;;;;;13.62;95.18;102060.50;5062197;28;20021;-75
2022/10/29 01:38:33;;;;;;;32.45;16.40;;;;;;;13.59;95.23;102053.44;5062174;28;20077;-75
2022/10/29 01:41:10;;;;;;;35.13;16.48;;;;;;;13.60;95.71;102041.22;5062521;28;20079;-75
2022/10/29 01:43:43;;;;;;;31.33;15.88;;;;;;;13.57;96.09;102036.81;5062264;28;20029;-74
2022/10/29 01:46:16;;;;;;;38.33;17.90;;;;;;;13.56;95.52;102038.50;5062164;28;20020;-75
2022/10/29 01:48:45;;;;;;;39.10;18.17;;;;;;;13.55;95.19;102026.25;5062077;28;20236;-75
2022/10/29 01:51:18;;;;;;;43.10;19.00;;;;;;;13.55;95.42;102028.00;5061979;28;20020;-75
2022/10/29 01:53:43;;;;;;;38.53;16.95;;;;;;;13.54;95.26;102028.81;5062108;28;20017;-75
2022/10/29 01:56:08;;;;;;;35.70;16.85;;;;;;;13.53;94.75;102011.38;5061952;28;20035;-75
2022/10/29 01:58:35;;;;;;;41.80;18.70;;;;;;;13.49;95.42;102012.09;5062887;28;20092;-74
2022/10/29 02:01:11;;;;;;;40.45;18.90;;;;;;;13.45;95.99;102008.50;5065861;28;20029;-75
2022/10/29 02:04:00;;;;;;;40.38;18.95;;;;;;;13.45;95.65;102018.97;5066077;28;20025;-75
2022/10/29 02:06:51;;;;;;;38.30;19.15;;;;;;;13.44;94.85;102011.97;5065612;28;20032;-66
2022/10/29 02:09:26;;;;;;;42.95;18.85;;;;;;;13.43;95.32;102015.44;5065527;28;20024;-66
2022/10/29 02:12:05;;;;;;;41.08;17.83;;;;;;;13.41;95.03;102016.22;5065806;28;20035;-66
2022/10/29 02:15:17;;;;;;;38.03;19.10;;;;;;;13.39;94.57;102022.28;5065425;28;20033;-66
2022/10/29 02:17:43;;;;;;;43.33;21.50;;;;;;;13.34;94.08;102016.03;5064278;28;20041;-66
2022/10/29 02:20:11;;;;;;;39.70;19.92;;;;;;;13.33;94.34;102011.59;5065630;28;20135;-66
2022/10/29 02:22:36;;;;;;;41.25;21.85;;;;;;;13.29;94.53;102004.47;5065271;28;20084;-66
2022/10/29 02:25:03;;;;;;;37.08;17.08;;;;;;;13.27;94.11;102013.16;5065266;28;20035;-66
2022/10/29 02:27:29;;;;;;;24.02;14.20;;;;;;;13.22;93.76;102006.03;5065137;28;20198;-66
2022/10/29 02:29:54;;;;;;;20.60;12.60;;;;;;;13.14;93.10;102002.28;5065171;28;20028;-66
2022/10/29 02:32:19;;;;;;;20.00;12.50;;;;;;;13.08;93.30;101996.84;5064754;28;20036;-66
2022/10/29 02:34:44;;;;;;;23.85;12.90;;;;;;;13.04;93.12;101995.84;5065388;28;20082;-66
2022/10/29 02:37:10;;;;;;;23.90;14.13;;;;;;;13.00;93.41;101986.13;5065220;28;20085;-75
2022/10/29 02:39:35;;;;;;;21.50;12.65;;;;;;;12.97;93.13;101980.81;5064994;28;20104;-75
2022/10/29 02:42:00;;;;;;;23.85;13.32;;;;;;;12.96;93.41;101981.66;5064967;28;20040;-75
2022/10/29 02:44:26;;;;;;;26.80;15.32;;;;;;;12.96;94.05;101983.38;5064846;28;20025;-75
2022/10/29 02:46:51;;;;;;;28.10;14.70;;;;;;;12.96;94.26;101979.06;5064743;28;20059;-74
2022/10/29 02:49:16;;;;;;;29.35;17.10;;;;;;;12.97;93.85;101974.69;5064722;28;20218;-75
2022/10/29 02:51:41;;;;;;;36.42;18.63;;;;;;;12.96;94.05;101979.06;5064749;28;20095;-75
2022/10/29 02:54:07;;;;;;;31.55;17.70;;;;;;;12.96;94.19;101970.28;5064605;28;20025;-75
2022/10/29 02:56:32;;;;;;;34.33;17.40;;;;;;;12.96;93.85;101984.28;5064763;28;20021;-75
2022/10/29 02:58:57;;;;;;;28.75;16.08;;;;;;;12.95;93.69;101985.09;5064563;28;20040;-75
2022/10/29 03:01:23;;;;;;;28.42;15.50;;;;;;;12.95;93.63;101979.00;5064447;28;20021;-75
2022/10/29 03:03:48;;;;;;;33.33;17.15;;;;;;;12.94;94.26;101982.44;5064605;28;20045;-75
2022/10/29 03:06:15;;;;;;;32.08;17.38;;;;;;;12.94;94.61;101975.47;5064513;28;20048;-75
2022/10/29 03:08:41;;;;;;;29.10;16.70;;;;;;;12.94;94.86;101974.59;5064532;28;20037;-75
2022/10/29 03:11:07;;;;;;;24.52;15.13;;;;;;;12.90;95.12;101967.50;5063725;28;20292;-75
2022/10/29 03:13:32;;;;;;;24.08;13.93;;;;;;;12.86;94.86;101963.88;5064205;28;20244;-75
2022/10/29 03:15:57;;;;;;;25.08;15.27;;;;;;;12.83;94.56;101961.16;5064204;28;20063;-75
2022/10/29 03:18:22;;;;;;;29.35;16.77;;;;;;;12.81;94.30;101966.34;5064081;28;20097;-75
2022/10/29 03:20:48;;;;;;;29.42;16.30;;;;;;;12.78;94.19;101961.00;5064325;28;20268;-75
2022/10/29 03:23:13;;;;;;;28.98;16.27;;;;;;;12.78;93.85;101954.91;5064147;28;20127;-74
2022/10/29 03:25:38;;;;;;;28.35;16.17;;;;;;;12.75;93.78;101955.69;5064118;28;20021;-75
2022/10/29 03:28:04;;;;;;;29.80;16.95;;;;;;;12.74;93.87;101960.88;5064035;28;20032;-74
2022/10/29 03:30:29;;;;;;;33.97;17.88;;;;;;;12.71;93.69;101953.81;5063910;28;20154;-75
2022/10/29 03:32:54;;;;;;;31.60;17.77;;;;;;;12.68;93.76;101944.13;5064252;28;20044;-75
2022/10/29 03:35:20;;;;;;;36.67;18.88;;;;;;;12.67;93.89;101945.00;5063950;28;20051;-75
2022/10/29 03:37:51;;;;;;;32.88;17.05;;;;;;;12.65;94.03;101943.16;5079483;28;20194;-75
2022/10/29 03:40:17;;;;;;;35.40;17.25;;;;;;;12.66;94.24;101948.44;5063967;28;20066;-75
2022/10/29 03:42:42;;;;;;;27.55;17.08;;;;;;;12.66;94.60;101937.97;5063777;28;20029;-75
2022/10/29 03:45:09;;;;;;;33.55;17.05;;;;;;;12.67;94.62;101937.16;5063620;28;20100;-75
2022/10/29 03:47:34;;;;;;;32.88;17.13;;;;;;;12.69;94.83;101939.81;5063790;28;20110;-67
2022/10/29 03:50:00;;;;;;;30.30;17.13;;;;;;;12.67;95.06;101938.84;5063493;28;20024;-66
2022/10/29 03:52:26;;;;;;;32.42;16.70;;;;;;;12.68;95.36;101940.63;5063563;28;20220;-66
2022/10/29 03:54:51;;;;;;;27.83;16.08;;;;;;;12.69;95.42;101940.69;5079141;28;20028;-66
2022/10/29 03:57:16;;;;;;;34.13;16.90;;;;;;;12.69;95.71;101934.56;5063595;28;20025;-66
2022/10/29 03:59:41;;;;;;;28.88;16.80;;;;;;;12.71;95.99;101932.88;5063435;28;20025;-66
2022/10/29 04:02:08;;;;;;;30.27;16.45;;;;;;;12.72;95.95;101923.34;5095929;28;20040;-66
2022/10/29 04:04:33;;;;;;;29.63;16.30;;;;;;;12.72;96.40;101913.75;5095819;28;20052;-66
2022/10/29 04:06:59;;;;;;;31.15;16.17;;;;;;;12.72;96.76;101907.66;5063620;28;20299;-66
2022/10/29 04:09:24;;;;;;;30.60;16.73;;;;;;;12.75;96.54;101912.97;5078857;28;20079;-66
2022/10/29 04:11:49;;;;;;;33.33;17.90;;;;;;;12.75;96.66;101912.97;5063104;28;20040;-66
2022/10/29 04:14:15;;;;;;;35.30;17.23;;;;;;;12.75;95.96;101907.72;5063175;28;20181;-66
2022/10/29 04:16:40;;;;;;;35.50;17.63;;;;;;;12.76;96.93;101910.41;5063057;28;20025;-74
2022/10/29 04:19:05;;;;;;;33.33;19.02;;;;;;;12.79;97.45;101902.66;5063191;28;20025;-75
2022/10/29 04:21:31;;;;;;;34.65;18.17;;;;;;;12.82;97.25;101901.88;5062938;28;20071;-75
2022/10/29 04:23:56;;;;;;;37.03;19.42;;;;;;;12.82;97.43;101899.25;5078182;28;20036;-75
2022/10/29 04:26:21;;;;;;;37.10;18.08;;;;;;;12.83;97.32;101895.75;5062061;28;20478;-75
2022/10/29 04:28:48;;;;;;;36.28;17.77;;;;;;;12.85;97.56;101891.50;5062772;28;20025;-75
2022/10/29 04:31:14;;;;;;;35.67;17.92;;;;;;;12.86;97.33;101895.84;5062465;28;20206;-75
2022/10/29 04:33:39;;;;;;;32.70;17.80;;;;;;;12.87;97.35;101897.66;5062600;28;20080;-75
2022/10/29 04:36:05;;;;;;;33.38;17.63;;;;;;;12.87;97.42;101892.41;5062760;28;20020;-75
2022/10/29 04:38:30;;;;;;;39.15;19.15;;;;;;;12.91;97.37;101882.94;5062540;28;20024;-75
2022/10/29 04:40:59;;;;;;;40.88;18.55;;;;;;;12.90;97.36;101882.03;5062797;28;20064;-75
2022/10/29 04:43:25;;;;;;;38.13;17.83;;;;;;;12.91;97.17;101883.81;5062744;28;20032;-75
2022/10/29 04:45:55;;;;;;;37.38;18.65;;;;;;;12.88;96.98;101888.97;5062680;28;20021;-75
2022/10/29 04:48:21;;;;;;;;;;;;;;;12.97;95.82;101890.97;5063135;28;20056;-75
2022/10/29 04:50:47;;;;;;;35.10;18.08;;;;;;;12.92;96.33;101890.84;5062669;28;19904;-75
2022/10/29 04:53:13;;;;;;;42.95;18.55;;;;;;;12.90;96.55;101896.84;5062712;28;20170;-75
2022/10/29 04:55:38;;;;;;;37.78;18.30;;;;;;;12.89;96.42;101895.97;5062684;28;20021;-75
2022/10/29 04:58:05;;;;;;;37.67;17.80;;;;;;;12.87;96.32;101893.31;5062438;28;20209;-74
2022/10/29 05:00:31;;;;;;;38.03;18.65;;;;;;;12.86;96.25;101888.00;5062365;28;20139;-75
2022/10/29 05:02:56;;;;;;;36.10;18.27;;;;;;;12.89;97.09;101890.75;5062279;28;20025;-75
2022/10/29 05:05:22;;;;;;;35.58;17.95;;;;;;;12.91;96.64;101886.44;5062539;28;20029;-75
2022/10/29 05:07:48;;;;;;;34.88;18.00;;;;;;;12.91;96.66;101886.44;5062515;28;20029;-75
2022/10/29 05:10:13;;;;;;;36.47;18.73;;;;;;;12.91;96.84;101886.44;5062337;28;20195;-75
2022/10/29 05:12:39;;;;;;;35.83;18.13;;;;;;;12.91;96.49;101886.44;5062247;28;20036;-75
2022/10/29 05:15:05;;;;;;;36.55;18.00;;;;;;;12.90;96.33;101886.41;5062122;28;20017;-75
2022/10/29 05:17:31;;;;;;;34.72;18.95;;;;;;;12.88;96.39;101881.13;5062095;28;20105;-66
2022/10/29 05:19:56;;;;;;;34.88;18.38;;;;;;;12.87;96.33;101881.94;5062389;28;20024;-66
2022/10/29 05:22:21;;;;;;;40.47;19.60;;;;;;;12.87;96.31;101881.94;5062216;28;20183;-66
2022/10/29 05:24:47;;;;;;;38.63;19.77;;;;;;;12.83;96.52;101875.75;5062316;28;20052;-66
2022/10/29 05:27:12;;;;;;;37.67;19.23;;;;;;;12.85;96.51;101870.56;5062170;28;20029;-66
2022/10/29 05:29:37;;;;;;;39.63;18.65;;;;;;;12.85;96.74;101878.41;5062151;28;20288;-66
2022/10/29 05:32:03;;;;;;;36.63;18.92;;;;;;;12.84;96.74;101877.50;5061962;28;20115;-66
2022/10/29 05:34:29;;;;;;;36.63;18.60;;;;;;;12.83;96.75;101875.75;5064727;28;20060;-66
2022/10/29 05:36:54;;;;;;;43.50;19.33;;;;;;;12.84;96.95;101867.03;5066298;28;20040;-66
2022/10/29 05:39:20;;;;;;;45.80;19.50;;;;;;;12.87;97.12;101866.25;5066164;28;20036;-66
2022/10/29 05:41:45;;;;;;;40.50;18.88;;;;;;;12.85;97.38;101853.13;5066164;28;20053;-66
2022/10/29 05:44:11;;;;;;;37.15;18.70;;;;;;;12.87;97.73;101861.03;5066033;28;20036;-66
2022/10/29 05:46:36;;;;;;;45.60;18.98;;;;;;;12.88;97.88;101862.81;5066171;28;20028;-66
2022/10/29 05:49:02;;;;;;;41.38;19.80;;;;;;;12.88;98.09;101862.81;5066005;28;20020;-66
2022/10/29 05:51:27;;;;;;;40.33;19.52;;;;;;;12.89;98.56;101856.75;5065998;28;20086;-66
2022/10/29 05:53:53;;;;;;;39.40;19.38;;;;;;;12.92;98.75;101853.31;5065912;28;20425;-66
2022/10/29 05:56:18;;;;;;;41.25;19.00;;;;;;;12.91;98.46;101852.44;5065657;28;20388;-66
2022/10/29 05:58:43;;;;;;;42.50;19.65;;;;;;;12.90;98.07;101850.66;5065740;28;20224;-66
2022/10/29 06:01:09;;;;;;;40.78;19.77;;;;;;;12.90;98.05;101855.88;5065755;28;20033;-66
2022/10/29 06:03:35;;;;;;;40.80;19.20;;;;;;;12.90;98.21;101848.03;5065677;28;20145;-66
2022/10/29 06:06:00;;;;;;;41.97;20.08;;;;;;;12.90;98.39;101844.53;5065565;28;20067;-66
2022/10/29 06:08:26;;;;;;;41.88;19.30;;;;;;;12.90;98.13;101845.41;5065524;28;20175;-66
2022/10/29 06:10:51;;;;;;;44.28;20.02;;;;;;;12.92;98.19;101846.38;5065388;28;20216;-66
2022/10/29 06:13:21;;;;;;;41.72;20.50;;;;;;;12.95;98.78;101853.44;5065101;28;20032;-66
2022/10/29 06:15:48;;;;;;;43.65;21.40;;;;;;;12.97;98.44;101852.59;5065459;28;20040;-66
2022/10/29 06:18:14;;;;;;;42.92;20.38;;;;;;;13.00;98.76;101854.44;5065219;28;20021;-75
2022/10/29 06:20:39;;;;;;;44.90;21.33;;;;;;;13.01;98.84;101864.94;5065391;28;20033;-75
2022/10/29 06:23:05;;;;;;;48.28;22.17;;;;;;;13.05;99.53;101873.78;5065596;28;20210;-75
2022/10/29 06:25:31;;;;;;;45.35;22.15;;;;;;;13.08;100.00;101862.50;5065380;28;20279;-75
2022/10/29 06:28:04;;;;;;;42.78;21.75;;;;;;;13.09;100.00;101862.53;5065370;28;20041;-75
2022/10/29 06:30:31;;;;;;;42.30;21.90;;;;;;;13.12;100.00;101874.84;5065245;28;20032;-75
2022/10/29 06:32:56;;;;;;;46.92;21.85;;;;;;;13.13;100.00;101874.00;5065028;28;20041;-75
2022/10/29 06:35:22;;;;;;;51.15;22.17;;;;;;;13.16;100.00;101863.63;5064927;28;20091;-75
2022/10/29 06:37:47;;;;;;;47.40;22.38;;;;;;;13.17;100.00;101857.56;5065196;28;20049;-75
2022/10/29 06:40:13;;;;;;;45.83;22.10;;;;;;;13.18;100.00;101861.97;5064833;28;20024;-75
2022/10/29 06:42:38;;;;;;;44.85;22.15;;;;;;;13.19;100.00;101868.94;5065288;28;20074;-75
2022/10/29 06:45:03;;;;;;;52.97;22.83;;;;;;;13.20;100.00;101865.50;5079441;28;20045;-75
2022/10/29 06:47:29;;;;;;;52.47;21.42;;;;;;;13.16;100.00;101863.63;5064986;28;20039;-75
2022/10/29 06:49:54;;;;;;;48.60;21.80;;;;;;;13.17;99.95;101865.41;5064739;28;20268;-75
2022/10/29 06:52:19;;;;;;;47.63;21.13;;;;;;;13.17;99.85;101870.66;5064612;28;20028;-76
2022/10/29 06:54:45;;;;;;;51.65;23.13;;;;;;;13.17;99.55;101868.03;5064772;28;20052;-75
2022/10/29 06:57:10;;;;;;;46.72;21.33;;;;;;;13.16;99.48;101869.72;5064705;28;20031;-75
2022/10/29 06:59:35;;;;;;;44.47;21.83;;;;;;;13.17;99.85;101878.50;5064617;28;20024;-75
2022/10/29 07:02:00;;;;;;;46.42;21.88;;;;;;;13.17;100.00;101871.53;5064654;28;20036;-76
2022/10/29 07:04:26;;;;;;;46.65;22.73;;;;;;;13.19;100.00;101880.31;5064434;28;20021;-75
2022/10/29 07:06:51;;;;;;;51.17;25.35;;;;;;;13.23;100.00;101881.28;5064693;28;20389;-75
2022/10/29 07:09:16;;;;;;;59.55;26.80;;;;;;;13.27;100.00;101872.69;5064424;28;20060;-75
2022/10/29 07:11:41;;;;;;;60.47;27.55;;;;;;;13.32;100.00;101876.31;5080071;28;20070;-75
2022/10/29 07:14:08;;;;;;;53.33;25.42;;;;;;;13.34;100.00;101869.44;5064355;28;20025;-76
2022/10/29 07:16:34;;;;;;;57.33;28.05;;;;;;;13.34;100.00;101866.81;5064299;28;20021;-75
2022/10/29 07:18:59;;;;;;;56.67;27.10;;;;;;;13.32;100.00;101852.75;5064309;28;20032;-76
2022/10/29 07:21:25;;;;;;;53.42;25.27;;;;;;;13.32;100.00;101860.59;5064335;28;20025;-76
2022/10/29 07:23:50;;;;;;;68.03;30.05;;;;;;;13.33;100.00;101862.38;5064251;28;20024;-75
2022/10/29 07:26:15;;;;;;;62.67;30.00;;;;;;;13.36;100.00;101848.53;5064125;28;20029;-66
2022/10/29 07:28:40;;;;;;;56.83;28.20;;;;;;;13.36;100.00;101843.31;5064183;28;20024;-66
2022/10/29 07:31:06;;;;;;;67.70;30.30;;;;;;;13.36;100.00;101840.69;5063834;28;20048;-66
2022/10/29 07:33:32;;;;;;;75.35;33.10;;;;;;;13.37;100.00;101845.09;5079372;28;20294;-66
2022/10/29 07:35:58;;;;;;;66.05;32.72;;;;;;;13.38;100.00;101847.75;5064011;28;20212;-66
2022/10/29 07:38:24;;;;;;;72.20;30.70;;;;;;;13.42;100.00;101845.22;5063945;28;20264;-66
2022/10/29 07:40:50;;;;;;;58.28;27.15;;;;;;;13.44;100.00;101848.75;5063929;28;20079;-66
2022/10/29 07:43:16;;;;;;;55.78;25.98;;;;;;;13.45;100.00;101840.06;5063849;28;20016;-66
2022/10/29 07:45:44;;;;;;;51.65;24.58;;;;;;;13.48;100.00;101843.63;5063889;28;20021;-66
2022/10/29 07:48:09;;;;;;;54.00;25.10;;;;;;;13.50;100.00;101843.69;5063805;28;20215;-66
2022/10/29 07:50:36;;;;;;;51.63;24.58;;;;;;;13.52;100.00;101839.38;5063726;28;20031;-66
2022/10/29 07:53:03;;;;;;;56.58;25.25;;;;;;;13.53;100.00;101841.16;5063785;28;20112;-66
2022/10/29 07:55:29;;;;;;;51.22;25.08;;;;;;;13.55;100.00;101832.47;5063870;28;20040;-66
2022/10/29 07:58:00;;;;;;;70.15;25.40;;;;;;;13.59;100.00;101849.19;5063508;28;20092;-66
2022/10/29 08:00:26;;;;;;;55.45;23.98;;;;;;;13.61;100.00;101837.00;5063407;28;20059;-66
2022/10/29 08:02:53;;;;;;;59.47;24.75;;;;;;;13.65;100.00;101848.47;5063586;28;20024;-66
2022/10/29 08:05:18;;;;;;;53.97;25.00;;;;;;;13.68;100.00;101849.41;5063316;28;20033;-66
2022/10/29 08:07:43;;;;;;;62.05;26.73;;;;;;;13.74;100.00;101846.06;5063472;28;20049;-66
2022/10/29 08:10:09;;;;;;;52.05;24.15;;;;;;;13.79;100.00;101841.84;5063285;28;20064;-66
2022/10/29 08:12:34;;;;;;;60.75;26.90;;;;;;;13.84;100.00;101844.59;5063177;28;20028;-66
2022/10/29 08:14:59;;;;;;;59.83;27.02;;;;;;;13.90;100.00;101837.78;5063286;28;20021;-66
2022/10/29 08:17:28;;;;;;;56.25;25.75;;;;;;;13.95;100.00;101827.41;5063341;28;20282;-66
2022/10/29 08:19:53;;;;;;;59.72;27.05;;;;;;;14.01;100.00;101832.81;5063186;28;20021;-66
2022/10/29 08:22:18;;;;;;;65.38;28.40;;;;;;;14.06;100.00;101833.81;5062889;28;20348;-66
2022/10/29 08:24:44;;;;;;;60.03;27.58;;;;;;;14.12;100.00;101824.31;5063168;28;20032;-66
2022/10/29 08:27:09;;;;;;;64.00;26.92;;;;;;;14.16;100.00;101827.06;5078338;28;20029;-66
2022/10/29 08:29:34;;;;;;;63.75;26.48;;;;;;;14.21;100.00;101824.56;5063023;28;20033;-66
2022/10/29 08:31:59;;;;;;;67.90;27.60;;;;;;;14.25;100.00;101816.81;5078279;28;20045;-66
2022/10/29 08:34:25;;;;;;;66.28;28.23;;;;;;;14.27;100.00;101819.47;5062499;28;20041;-66
2022/10/29 08:36:50;;;;;;;60.50;27.63;;;;;;;14.31;100.00;101826.56;5062804;28;20268;-66
2022/10/29 08:39:15;;;;;;;68.95;27.20;;;;;;;14.35;100.00;101825.78;5062698;28;20115;-66
2022/10/29 08:41:52;;;;;;;60.53;27.92;;;;;;;14.41;100.00;101830.25;5062674;28;20658;-66
2022/10/29 08:44:50;;;;;;;67.18;27.35;;;;;;;14.51;100.00;101840.16;5062771;28;20032;-66
2022/10/29 08:47:19;;;;;;;62.70;26.27;;;;;;;14.59;100.00;101840.31;5062540;28;20074;-66
2022/10/29 08:50:03;;;;;;;;;;;;;;;14.69;100.00;101834.47;5063104;28;20052;-66
2022/10/29 08:52:34;;;;;;;66.93;27.00;;;;;;;14.75;100.00;101828.47;5062603;28;19943;-66
2022/10/29 08:55:13;;;;;;;61.42;27.35;;;;;;;14.81;100.00;101827.72;5062626;28;20033;-66
2022/10/29 08:57:46;;;;;;;61.40;26.83;;;;;;;14.87;100.00;101827.84;5062703;28;20285;-75
2022/10/29 09:00:20;;;;;;;66.63;27.25;;;;;;;14.91;100.00;101821.81;5062483;28;20028;-75
2022/10/29 09:02:46;;;;;;;58.83;25.85;;;;;;;14.95;100.00;101818.41;5062914;28;20025;-75
2022/10/29 09:05:14;;;;;;;62.08;25.95;;;;;;;15.01;100.00;101815.91;5062358;28;20037;-75
2022/10/29 09:08:03;;;;;;;59.45;26.67;;;;;;;15.05;100.00;101823.00;5062104;28;20094;-75
2022/10/29 09:10:52;;;;;;;59.78;26.35;;;;;;;15.11;100.00;101809.13;5062638;28;20056;-75
2022/10/29 09:13:40;;;;;;;60.65;25.48;;;;;;;15.21;100.00;101810.19;5062391;28;20021;-75
2022/10/29 09:16:13;;;;;;;66.30;25.95;;;;;;;15.30;100.00;101808.59;5062537;28;20071;-75
2022/10/29 09:19:13;;;;;;;61.22;26.25;;;;;;;15.37;100.00;101814.88;5061316;28;20031;-75
2022/10/29 09:21:55;;;;;;;61.58;25.40;;;;;;;15.45;100.00;101813.28;5062361;28;20076;-74
2022/10/29 09:24:44;;;;;;;62.05;25.85;;;;;;;15.53;100.00;101820.44;5062301;28;20049;-75
2022/10/29 09:27:26;;;;;;;61.07;24.47;;;;;;;15.61;100.00;101819.72;5062252;28;20116;-66
2022/10/29 09:30:05;;;;;;;58.13;23.85;;;;;;;15.68;100.00;101817.19;5077788;28;20025;-66
2022/10/29 09:32:52;;;;;;;47.78;22.83;;;;;;;15.72;100.00;101804.13;5062049;28;20324;-66
2022/10/29 09:35:20;;;;;;;48.40;22.65;;;;;;;15.76;100.00;101794.59;5062258;28;20159;-66
2022/10/29 09:37:52;;;;;;;53.13;24.10;;;;;;;15.82;100.00;101795.59;5062367;28;20025;-66
2022/10/29 09:40:26;;;;;;;55.40;23.27;;;;;;;15.84;100.00;101807.88;5062160;28;20184;-66
2022/10/29 09:42:53;;;;;;;61.60;24.25;;;;;;;15.90;100.00;101793.09;5062286;28;20033;-66
2022/10/29 09:45:23;;;;;;;48.95;22.20;;;;;;;15.94;100.00;101801.91;5062171;28;20084;-66
2022/10/29 09:47:54;;;;;;;56.95;23.20;;;;;;;15.98;100.00;101798.47;5062070;28;20025;-67
2022/10/29 09:50:47;;;;;;;47.75;22.85;;;;;;;16.05;100.00;101787.22;5062033;28;20033;-66
2022/10/29 09:53:13;;;;;;;48.53;21.98;;;;;;;16.12;100.00;101782.91;5062137;28;20024;-66
2022/10/29 09:55:44;;;;;;;49.65;22.85;;;;;;;16.21;100.00;101785.72;5062189;28;20264;-66
2022/10/29 09:58:22;;;;;;;51.63;22.02;;;;;;;16.30;100.00;101774.44;5062061;28;20071;-66
2022/10/29 10:00:48;;;;;;;49.90;20.45;;;;;;;16.38;99.65;101770.19;5062075;28;20013;-66
2022/10/29 10:03:28;;;;;;;50.78;20.73;;;;;;;16.50;100.00;101775.59;5062184;28;20047;-66
2022/10/29 10:06:03;;;;;;;45.25;20.17;;;;;;;16.63;99.96;101774.03;5077626;28;20044;-66
2022/10/29 10:08:29;;;;;;;42.15;19.40;;;;;;;16.76;97.95;101769.81;5061895;28;20267;-74
2022/10/29 10:11:00;;;;;;;44.95;20.00;;;;;;;16.86;96.89;101771.69;5061874;28;20056;-74
2022/10/29 10:13:31;;;;;;;44.67;19.42;;;;;;;16.95;94.63;101765.69;5062146;28;20017;-74
2022/10/29 10:16:00;;;;;;;43.85;17.90;;;;;;;16.99;94.54;101766.63;5061844;28;20017;-74
2022/10/29 10:18:37;;;;;;;42.73;17.67;;;;;;;17.00;94.63;101769.28;5061923;28;20041;-74
2022/10/29 10:21:28;;;;;;;44.10;17.95;;;;;;;17.03;96.82;101769.31;5063288;28;20549;-74
2022/10/29 10:23:56;;;;;;;46.78;18.63;;;;;;;17.11;96.70;101765.88;5065249;28;20023;-74
2022/10/29 10:26:33;;;;;;;38.85;17.33;;;;;;;17.19;96.80;101765.09;5065023;28;20025;-74
2022/10/29 10:29:02;;;;;;;41.65;17.23;;;;;;;17.31;94.34;101768.75;5065316;28;20025;-74
2022/10/29 10:31:28;;;;;;;40.30;16.95;;;;;;;17.43;92.94;101763.56;5065090;28;20115;-74
2022/10/29 10:33:54;;;;;;;37.95;17.27;;;;;;;17.60;92.89;101757.56;5065118;28;20379;-74
2022/10/29 10:36:27;;;;;;;41.08;16.70;;;;;;;17.68;90.82;101754.16;5065129;28;20120;-66
2022/10/29 10:38:55;;;;;;;42.20;16.08;;;;;;;17.79;90.44;101751.63;5065133;28;20171;-66
2022/10/29 10:41:29;;;;;;;38.17;15.50;;;;;;;17.93;91.88;101750.88;5065258;28;20051;-66
2022/10/29 10:43:59;;;;;;;43.92;16.75;;;;;;;18.07;90.98;101747.47;5065045;28;20020;-65
2022/10/29 10:46:31;;;;;;;39.95;14.75;;;;;;;18.22;88.99;101751.97;5065109;28;20049;-66
2022/10/29 10:49:29;;;;;;;34.40;13.40;;;;;;;18.39;87.05;101751.16;5065023;28;20028;-66
2022/10/29 10:51:56;;;;;;;27.37;12.80;;;;;;;18.56;85.68;101743.34;5064879;28;20259;-66
2022/10/29 10:54:54;;;;;;;30.48;12.75;;;;;;;18.72;87.02;101737.25;5065322;28;20256;-66
2022/10/29 10:57:23;;;;;;;32.22;11.88;;;;;;;18.90;82.88;101736.50;5064747;28;20052;-66
2022/10/29 11:00:07;;;;;;;29.20;12.40;;;;;;;19.05;79.53;101729.50;5064682;28;20029;-66
2022/10/29 11:03:05;;;;;;;32.75;12.07;;;;;;;19.22;83.49;101729.50;5064502;28;20032;-66
2022/10/29 11:05:39;;;;;;;32.55;11.88;;;;;;;19.38;79.77;101736.59;5064533;28;20268;-66
2022/10/29 11:08:14;;;;;;;26.63;10.65;;;;;;;19.50;79.61;101730.44;5064640;28;20287;-66
2022/10/29 11:10:42;;;;;;;24.58;11.02;;;;;;;19.64;77.18;101730.47;5064679;28;20036;-66
2022/10/29 11:13:15;;;;;;;30.65;10.60;;;;;;;19.78;78.67;101734.03;5063193;28;20226;-66
2022/10/29 11:15:50;;;;;;;29.85;10.30;;;;;;;19.90;77.13;101726.94;5064644;28;20021;-66
2022/10/29 11:18:32;;;;;;;26.05;8.95;;;;;;;20.01;75.52;101725.16;5064238;28;20243;-66